Airfield :
LOGIN :

Register | Disclaimer

   EN    FR    IT 

 










Legend :    VFR   Marginal VFR   IFR   Intensive IFR   Very Intensive IFR
Visi :
Ceiling :
>= 8 km
>= 3000ft
5 to 8 km
1000 to 3000 ft
1500m to 5 km
500 to 1000 ft
800 to 1500m
200 to 500 ft
< 800m
< 200 ft
Symbols :   Thunderstorms  Fog  Heavy snow  Heavy precipitations  Wind > 20 kt
SIGMETs :     Misc.  Thunderstorms  Icing  Turbulence  Mountain Waves  Volcanic Ashes







- Airport Elevation : 1300 ft
- IATA code : LIG
- Download approach charts


LFBL - Limoges

CURRENT METAR :
  • 251800Z AUTO 36009KT 330V040 9999 -RA OVC005 05/05 Q1008 TEMPO 4000 RA

EXPIRED METARs :
  • 251730Z AUTO 01011KT 340V040 9999 -RA OVC005 06/05 Q1007 TEMPO 4000 RA
  • 251700Z AUTO 36010KT 320V020 9999 -RA OVC004/// ///TCU 07/06 Q1007 TEMPO 4000 RA
  • 251630Z AUTO 01010KT 4100 RA BR OVC005/// ///TCU 07/07 Q1007 NOSIG
  • 251600Z AUTO 01006KT 320V030 7000 3400 -RA BKN007/// BKN019/// BKN029/// ///TCU 09/08 Q1007 TEMPO 4000 RA BKN004
  • 251530Z AUTO 02006KT 340V040 4700 RA BR BKN006/// OVC010/// ///TCU 09/08 Q1007 TEMPO BKN004

TAF TAF LFBL
Valid from the 25 at 18:00 until the 26 at 18:00 UTC


251700Z 2518/2618 01010KT 9999 BKN006
TEMPO 2518/2522 4000 RA OVC003
TEMPO 2602/2610 3000 -RADZ OVC003
BECMG 2610/2612 SCT025 BKN035
PROB40
TEMPO 2612/2618 4000 SHRA SCT030TCU
ATIS : +33 5 55 48 40 37
No reported NOTAMs for that airfield.



MET'MAP, your aeronautical weather chart ! - Copyright ORBIFLY December 2007 - Disclaimer

ORBIFLY MET'MAP TEAM :

Programming & Development : Alexandra Zaïnal
Concept & Development : Baudouin d'Aumeries
Co-Development & Prog : Marc-Olivier Méhu
Technical & hardware support : Manuel Goepfert

Contact : metmap@orbifly.com




SOURCES & CREDITS :

   NOAA